Ray Brook, New York
Current Conditions -  °F | °C
As of 5:51 AM on Friday 24 Oct 2014 (Local Time) from KSLK Reporting Station
Light Rain Light Rain  
Wind Chill: 36°   Ceiling: 800
Heat Index: 39°   Visibility: 7mi
Dew Point: 37°   Wind: 5mph
Humidity: 93%   Direction: 10°N
Pressure: 29.85"   Gusts: NA
Location:  44.3°N, 74.09°W
Report Text: KSLK 240951Z AUTO 01004KT 7SM -RA BKN008 OVC012 04/03 A2985 RMK AO2 RAB30 CIG 006V011 SLP120 P0001 T00390028
Loading
Personal Weather Stations






























Interactive Weather Map
Tropical Storm Tracking
New forecast layout! Learn more

10-Day Weather Forecast

Advertisements
Track Severe Weather on mobile